Time;durP1;ratioP1;P1;durP2;ratioP2;P2;SDS_P1;SDS_P2;PMS_P1;PMS_P2;Temp;Humidity;BMP_temperature;BMP_pressure;BME280_temperature;BME280_humidity;BME280_pressure;Samples;Min_cycle;Max_cycle;Signal;HPM_P1;HPM_P2
2021/03/05 00:01:03;;;;;;;27.59;15.41;;;;;;;3.45;60.34;98680.09;338208;111;1961940;-71
2021/03/05 00:02:08;;;;;;;28.36;13.61;;;;;;;3.44;60.53;98680.26;356062;111;1961986;-72
2021/03/05 00:03:15;;;;;;;28.17;13.98;;;;;;;3.39;60.58;98677.34;356253;111;1961911;-72
2021/03/05 00:04:21;;;;;;;24.61;12.88;;;;;;;3.39;60.83;98680.84;324477;111;2619033;-71
2021/03/05 00:05:27;;;;;;;23.08;11.09;;;;;;;3.35;60.54;98676.05;358163;111;1961983;-73
2021/03/05 00:06:34;;;;;;;21.00;11.09;;;;;;;3.34;60.31;98680.56;357420;111;1962988;-73
2021/03/05 00:07:40;;;;;;;25.88;13.20;;;;;;;3.35;60.62;98676.86;326872;111;2567944;-72
2021/03/05 00:08:46;;;;;;;24.49;12.92;;;;;;;3.36;60.60;98677.69;356050;111;1962011;-72
2021/03/05 00:09:51;;;;;;;22.68;12.64;;;;;;;3.37;60.49;98674.02;354846;112;1964082;-72
2021/03/05 00:10:58;;;;;;;21.76;11.13;;;;;;;3.39;60.50;98682.69;358100;112;1961917;-72
2021/03/05 00:12:04;;;;;;;19.75;10.38;;;;;;;3.38;60.25;98686.34;339592;111;2336908;-72
2021/03/05 00:13:10;;;;;;;21.86;11.14;;;;;;;3.39;60.21;98685.35;356735;111;1962020;-72
2021/03/05 00:14:16;;;;;;;20.53;10.52;;;;;;;3.39;60.06;98688.84;357584;112;1962032;-72
2021/03/05 00:15:28;;;;;;;20.45;10.63;;;;;;;3.41;60.02;98683.30;318486;112;2740924;-72
2021/03/05 00:16:35;;;;;;;23.18;10.56;;;;;;;3.39;59.95;98685.35;358919;112;1962007;-72
2021/03/05 00:17:41;;;;;;;21.91;10.79;;;;;;;3.39;60.11;98677.34;335984;112;2377306;-72
2021/03/05 00:18:47;;;;;;;18.34;10.75;;;;;;;3.39;60.07;98685.35;349897;112;1961948;-72
2021/03/05 00:19:52;;;;;;;21.14;10.63;;;;;;;3.39;59.72;98688.84;357092;111;1962077;-72
2021/03/05 00:20:59;;;;;;;21.85;12.27;;;;;;;3.35;59.95;98687.54;357279;112;1962036;-72
2021/03/05 00:22:13;;;;;;;21.73;11.07;;;;;;;3.35;59.98;98684.88;321564;112;1994445;-72
2021/03/05 00:23:20;;;;;;;22.51;12.01;;;;;;;3.33;59.78;98689.55;342012;109;2477868;-73
2021/03/05 00:24:25;;;;;;;22.25;11.18;;;;;;;3.30;59.72;98693.42;355902;113;1961950;-72
2021/03/05 00:25:31;;;;;;;20.94;10.84;;;;;;;3.30;60.00;98690.75;358200;112;1962026;-72
2021/03/05 00:26:37;;;;;;;23.52;12.20;;;;;;;3.31;59.99;98691.61;357112;112;1962050;-74
2021/03/05 00:27:42;;;;;;;23.47;11.48;;;;;;;3.30;60.01;98693.42;317668;113;2741953;-72
2021/03/05 00:28:48;;;;;;;21.42;10.56;;;;;;;3.27;60.13;98691.13;335777;109;1961986;-72
2021/03/05 00:29:53;;;;;;;21.35;11.67;;;;;;;3.28;60.09;98692.80;361678;111;1962961;-72
2021/03/05 00:30:58;;;;;;;22.10;12.20;;;;;;;3.30;60.10;98698.77;362082;109;1961995;-72
2021/03/05 00:32:05;;;;;;;24.78;12.52;;;;;;;3.27;60.13;98696.46;365816;108;1962077;-72
2021/03/05 00:33:10;;;;;;;20.46;10.86;;;;;;;3.26;60.13;98693.99;323347;107;2725809;-72
2021/03/05 00:34:17;;;;;;;21.14;11.03;;;;;;;3.21;60.29;98697.20;360568;111;1962022;-72
2021/03/05 00:35:24;;;;;;;26.81;12.93;;;;;;;3.23;60.30;98702.37;364062;109;1962048;-72
2021/03/05 00:36:30;;;;;;;21.16;10.91;;;;;;;3.21;60.27;98694.53;325600;109;1973699;-72
2021/03/05 00:37:36;;;;;;;20.25;10.11;;;;;;;3.19;60.16;98698.39;364485;109;1962916;-72
2021/03/05 00:38:43;;;;;;;25.60;12.11;;;;;;;3.17;60.17;98695.89;362867;107;1962269;-72
2021/03/05 00:39:48;;;;;;;21.06;11.72;;;;;;;3.15;60.34;98694.42;338543;111;2303919;-72
2021/03/05 00:40:53;;;;;;;22.53;11.19;;;;;;;3.13;60.46;98699.95;330076;116;1962031;-72
2021/03/05 00:41:58;;;;;;;21.27;11.77;;;;;;;3.11;60.55;98688.63;345627;116;1963961;-72
2021/03/05 00:43:05;;;;;;;22.84;11.72;;;;;;;3.12;60.70;98694.78;344057;115;1963009;-72
2021/03/05 00:44:10;;;;;;;20.90;11.13;;;;;;;3.12;60.77;98687.61;344045;118;1961919;-71
2021/03/05 00:45:18;;;;;;;23.41;10.86;;;;;;;3.14;60.74;98688.26;306357;118;2721012;-72
2021/03/05 00:46:26;;;;;;;24.20;11.14;;;;;;;3.16;60.61;98694.25;331242;115;2236949;-71
2021/03/05 00:47:31;;;;;;;20.96;10.73;;;;;;;3.17;60.73;98693.23;344333;116;1962059;-72
2021/03/05 00:48:37;;;;;;;22.71;10.78;;;;;;;3.15;60.66;98687.27;344000;116;1962003;-72
2021/03/05 00:49:43;;;;;;;21.22;11.03;;;;;;;3.15;60.63;98692.61;344388;116;1961989;-72
2021/03/05 00:50:49;;;;;;;21.43;10.30;;;;;;;3.16;60.57;98688.09;329713;116;2230988;-72
2021/03/05 00:51:54;;;;;;;20.01;9.73;;;;;;;3.14;60.79;98684.77;319063;116;1961994;-73
2021/03/05 00:53:06;;;;;;;20.13;10.39;;;;;;;3.15;60.71;98689.08;343670;118;1962964;-72
2021/03/05 00:54:11;;;;;;;20.02;10.68;;;;;;;3.14;60.57;98692.77;340347;119;1961955;-71
2021/03/05 00:55:18;;;;;;;22.79;10.49;;;;;;;3.14;60.59;98682.09;314925;117;2488931;-72
2021/03/05 00:56:26;;;;;;;19.41;10.47;;;;;;;3.13;60.70;98683.95;341036;117;1961991;-72
2021/03/05 00:57:31;;;;;;;21.77;10.71;;;;;;;3.14;60.75;98684.77;301218;119;2720025;-72
2021/03/05 00:58:37;;;;;;;23.33;11.79;;;;;;;3.15;60.93;98681.08;331467;106;1961764;-72
2021/03/05 00:59:43;;;;;;;22.17;10.92;;;;;;;3.16;60.76;98680.91;360962;112;1961971;-72
2021/03/05 01:00:50;;;;;;;21.30;11.29;;;;;;;3.17;60.74;98679.88;355571;114;1961918;-72
2021/03/05 01:01:56;;;;;;;21.16;10.39;;;;;;;3.17;60.66;98679.06;363499;110;1962975;-72
2021/03/05 01:03:02;;;;;;;21.54;11.22;;;;;;;3.17;60.66;98668.39;360979;108;1960744;-72
2021/03/05 01:04:08;;;;;;;22.58;9.91;;;;;;;3.16;60.68;98670.23;367484;109;1961928;-73
2021/03/05 01:05:16;;;;;;;23.07;11.07;;;;;;;3.16;60.74;98669.41;374327;108;1961953;-72
2021/03/05 01:06:23;;;;;;;23.26;10.57;;;;;;;3.14;60.78;98669.58;331410;107;2045679;-72
2021/03/05 01:07:30;;;;;;;23.34;11.79;;;;;;;3.11;60.88;98669.95;366141;110;1962059;-72
2021/03/05 01:08:36;;;;;;;19.63;9.92;;;;;;;3.10;60.90;98665.64;369051;110;1963006;-71
2021/03/05 01:09:42;;;;;;;20.86;10.78;;;;;;;3.10;60.98;98670.97;354247;106;2217786;-72
2021/03/05 01:10:48;;;;;;;19.62;10.41;;;;;;;3.11;60.95;98669.95;355964;114;1962013;-72
2021/03/05 01:11:53;;;;;;;23.52;12.02;;;;;;;3.11;61.04;98669.95;350724;112;1962009;-71
2021/03/05 01:13:00;;;;;;;21.54;10.81;;;;;;;3.08;61.00;98673.81;350894;114;1962035;-72
2021/03/05 01:14:06;;;;;;;21.26;10.61;;;;;;;3.05;61.09;98666.17;327459;114;2473877;-71
2021/03/05 01:15:11;;;;;;;22.00;11.38;;;;;;;3.03;61.42;98668.19;340179;114;1962970;-72
2021/03/05 01:16:18;;;;;;;23.36;11.44;;;;;;;3.04;61.42;98674.34;351029;114;1961908;-72
2021/03/05 01:17:25;;;;;;;21.19;10.29;;;;;;;3.06;61.39;98680.34;306537;114;2130442;-72
2021/03/05 01:18:30;;;;;;;20.58;9.76;;;;;;;3.05;61.36;98676.84;350553;114;1963937;-71
2021/03/05 01:19:36;;;;;;;22.70;11.34;;;;;;;3.05;61.30;98673.36;352852;114;1961962;-72
2021/03/05 01:20:43;;;;;;;19.31;10.60;;;;;;;3.06;61.30;98672.33;354262;114;1962015;-72
2021/03/05 01:21:48;;;;;;;21.39;10.12;;;;;;;3.06;61.36;98675.00;336063;114;1962016;-71
2021/03/05 01:22:55;;;;;;;21.97;11.28;;;;;;;3.05;61.24;98679.52;350899;114;1961996;-72
2021/03/05 01:24:01;;;;;;;19.66;10.54;;;;;;;3.03;61.40;98676.19;344302;117;1962052;-72
2021/03/05 01:25:12;;;;;;;19.97;9.32;;;;;;;3.00;61.52;98673.89;323393;115;2428001;-71
2021/03/05 01:26:18;;;;;;;21.61;11.53;;;;;;;3.01;61.41;98680.88;346858;115;1961931;-72
2021/03/05 01:27:23;;;;;;;21.30;10.80;;;;;;;3.00;61.47;98681.08;343808;116;1969935;-72
2021/03/05 01:28:29;;;;;;;22.81;10.71;;;;;;;3.01;61.46;98686.21;350907;115;1961945;-72
2021/03/05 01:29:35;;;;;;;20.51;10.70;;;;;;;3.03;61.53;98683.37;316873;114;2636970;-71
2021/03/05 01:30:41;;;;;;;19.90;10.58;;;;;;;3.00;61.61;98686.41;353540;112;1962924;-71
2021/03/05 01:31:46;;;;;;;20.73;11.12;;;;;;;2.99;61.67;98688.25;361919;107;1959765;-72
2021/03/05 01:32:53;;;;;;;20.43;11.08;;;;;;;3.00;61.65;98686.41;355303;112;1961998;-72
2021/03/05 01:33:58;;;;;;;22.36;10.70;;;;;;;2.97;61.71;98682.27;326048;108;2234972;-72
2021/03/05 01:35:15;;;;;;;21.78;11.81;;;;;;;2.92;61.86;98686.48;365584;109;1961965;-72
2021/03/05 01:36:22;;;;;;;19.47;10.33;;;;;;;2.92;62.00;98694.49;338110;112;2416042;-72
2021/03/05 01:37:29;;;;;;;19.91;10.48;;;;;;;2.91;61.88;98687.48;365642;109;1961929;-72
2021/03/05 01:38:34;;;;;;;22.89;11.87;;;;;;;2.91;62.01;98690.14;367639;108;1961937;-71
2021/03/05 01:39:40;;;;;;;23.34;11.02;;;;;;;2.91;62.05;98688.34;369147;110;1963964;-71
2021/03/05 01:40:47;;;;;;;22.96;10.53;;;;;;;2.91;62.00;98691.00;321699;109;2187602;-71
2021/03/05 01:41:52;;;;;;;20.07;10.63;;;;;;;2.91;62.09;98691.00;368575;108;1961908;-71
2021/03/05 01:42:59;;;;;;;22.33;10.75;;;;;;;2.92;62.03;98699.83;372881;108;1961974;-72
2021/03/05 01:44:07;;;;;;;21.65;10.78;;;;;;;2.88;62.15;98698.52;357892;107;1961752;-72
2021/03/05 01:45:16;;;;;;;24.18;11.04;;;;;;;2.85;62.18;98697.03;366910;108;1961996;-71
2021/03/05 01:46:23;;;;;;;22.31;11.37;;;;;;;2.85;62.21;98695.19;373239;108;1961988;-71
2021/03/05 01:47:29;;;;;;;21.64;11.45;;;;;;;2.86;62.27;98696.88;366386;108;1961980;-72
2021/03/05 01:48:36;;;;;;;21.77;10.77;;;;;;;2.85;62.34;98695.19;367283;110;1962992;-72
2021/03/05 01:49:42;;;;;;;21.08;11.14;;;;;;;2.85;62.47;98699.70;341434;113;2310954;-72
2021/03/05 01:51:01;;;;;;;23.74;11.65;;;;;;;2.85;62.46;98697.86;356802;112;1962968;-71
2021/03/05 01:52:07;;;;;;;20.71;10.43;;;;;;;2.85;62.47;98702.37;325185;113;1961920;-72
2021/03/05 01:53:12;;;;;;;24.08;11.34;;;;;;;2.85;62.49;98702.37;357902;112;1962885;-71
2021/03/05 01:54:17;;;;;;;24.05;11.81;;;;;;;2.84;62.63;98701.55;361791;112;1962028;-71
2021/03/05 01:55:24;;;;;;;22.09;10.28;;;;;;;2.84;62.63;98709.55;362133;110;1962021;-72
2021/03/05 01:56:44;;;;;;;20.68;10.22;;;;;;;2.83;62.78;98699.91;329379;111;2207950;-72
2021/03/05 01:57:50;;;;;;;22.74;10.31;;;;;;;2.83;62.68;98704.38;334924;110;1963920;-72
2021/03/05 01:58:55;;;;;;;22.67;11.16;;;;;;;2.85;62.68;98708.53;358268;112;1961929;-72
2021/03/05 02:00:00;;;;;;;23.88;10.97;;;;;;;2.86;62.72;98710.20;364011;110;1962001;-72
2021/03/05 02:01:09;;;;;;;19.91;10.53;;;;;;;2.88;62.64;98701.19;329191;110;2239941;-72
2021/03/05 02:02:17;;;;;;;19.72;11.16;;;;;;;2.88;62.71;98709.19;360787;110;1962057;-72
2021/03/05 02:03:23;;;;;;;18.83;11.32;;;;;;;2.89;62.67;98705.52;345568;111;1962021;-72
2021/03/05 02:04:29;;;;;;;23.38;11.69;;;;;;;2.90;62.72;98710.66;366385;109;1961934;-72
2021/03/05 02:05:38;;;;;;;20.93;11.19;;;;;;;2.91;62.70;98709.67;336549;110;2438969;-72
2021/03/05 02:06:45;;;;;;;22.63;12.32;;;;;;;2.90;62.74;98716.00;359689;110;1962890;-72
2021/03/05 02:07:50;;;;;;;20.65;10.86;;;;;;;2.90;62.71;98717.84;315967;110;2213353;-72
2021/03/05 02:08:56;;;;;;;19.85;11.17;;;;;;;2.88;62.73;98710.00;362215;110;1961987;-72
2021/03/05 02:10:01;;;;;;;24.44;12.56;;;;;;;2.87;62.82;98713.70;362601;110;1961996;-72
2021/03/05 02:11:08;;;;;;;21.33;11.39;;;;;;;2.85;62.84;98715.70;362577;110;1961897;-72
2021/03/05 02:12:14;;;;;;;22.60;11.54;;;;;;;2.85;62.82;98708.53;340799;112;2322925;-71
2021/03/05 02:13:19;;;;;;;24.66;12.62;;;;;;;2.85;63.13;98705.86;336629;114;1961979;-72
2021/03/05 02:14:25;;;;;;;24.77;12.36;;;;;;;2.83;63.27;98705.23;362370;112;1961929;-72
2021/03/05 02:15:33;;;;;;;24.43;13.37;;;;;;;2.81;63.15;98709.91;355449;114;1964820;-72
2021/03/05 02:17:13;;;;;;;21.42;12.31;;;;;;;2.80;63.08;98708.23;361536;110;1961909;-72
2021/03/05 02:18:34;;;;;;;27.36;12.89;;;;;;;2.76;63.47;98722.95;342298;114;1960846;-71
2021/03/05 02:20:06;;;;;;;25.77;13.57;;;;;;;2.72;63.63;98715.48;323274;112;2932827;-72
2021/03/05 02:21:36;;;;;;;22.23;12.42;;;;;;;2.69;63.92;98718.52;347236;111;1961690;-71
2021/03/05 02:23:11;;;;;;;22.53;12.59;;;;;;;2.68;63.97;98716.86;345201;115;1960682;-71
2021/03/05 02:24:41;;;;;;;22.78;11.43;;;;;;;2.68;63.85;98719.53;354638;111;1960769;-71
2021/03/05 02:26:18;;;;;;;27.79;13.06;;;;;;;2.67;63.96;98723.19;352919;111;1960710;-71
2021/03/05 02:28:02;;;;;;;22.71;11.18;;;;;;;2.67;63.98;98715.19;341669;109;1960766;-72
2021/03/05 02:29:11;;;;;;;20.53;11.94;;;;;;;2.66;64.15;98721.54;318204;113;2053826;-72
2021/03/05 02:30:51;;;;;;;24.98;12.03;;;;;;;2.63;64.24;98726.21;357290;113;1963997;-71
2021/03/05 02:32:03;;;;;;;25.47;11.98;;;;;;;2.63;64.21;98726.21;308724;116;2071013;-72
2021/03/05 02:33:22;;;;;;;25.55;14.18;;;;;;;2.60;64.60;98731.91;351755;113;1963979;-72
2021/03/05 02:34:34;;;;;;;25.05;12.81;;;;;;;2.58;64.74;98733.09;352229;115;1961970;-71
2021/03/05 02:35:43;;;;;;;24.02;12.86;;;;;;;2.57;64.77;98723.45;344433;115;1962904;-72
2021/03/05 02:37:04;;;;;;;24.66;12.29;;;;;;;2.57;64.85;98734.11;329051;115;2355974;-72
2021/03/05 02:38:12;;;;;;;25.89;12.87;;;;;;;2.56;64.87;98729.77;347169;117;1961899;-72
2021/03/05 02:39:22;;;;;;;27.22;13.22;;;;;;;2.54;64.97;98727.30;315441;115;2554999;-71
2021/03/05 02:40:35;;;;;;;27.91;13.14;;;;;;;2.54;65.11;98727.30;313239;115;2055970;-71
2021/03/05 02:41:44;;;;;;;27.07;13.56;;;;;;;2.55;65.02;98741.45;346533;115;1962045;-72
2021/03/05 02:42:54;;;;;;;24.90;13.49;;;;;;;2.55;65.25;98734.27;349632;115;1962000;-72
2021/03/05 02:44:01;;;;;;;26.19;12.93;;;;;;;2.55;65.10;98742.27;346805;116;1963051;-71
2021/03/05 02:45:17;;;;;;;29.54;13.97;;;;;;;2.54;65.41;98753.95;351721;115;1961966;-71
2021/03/05 02:46:26;;;;;;;31.92;14.44;;;;;;;2.54;65.66;98745.09;342796;115;1961938;-71
2021/03/05 02:47:33;;;;;;;30.18;15.02;;;;;;;2.52;65.62;98755.13;348986;115;1962007;-71
2021/03/05 02:48:41;;;;;;;27.37;12.77;;;;;;;2.51;65.70;98758.78;348623;115;1963928;-71
2021/03/05 02:49:48;;;;;;;27.99;13.34;;;;;;;2.50;66.13;98760.63;358111;110;1960655;-71
2021/03/05 02:50:58;;;;;;;28.18;13.88;;;;;;;2.50;65.97;98763.30;366276;108;1961910;-72
2021/03/05 02:52:10;;;;;;;29.36;14.22;;;;;;;2.51;66.00;98761.45;333742;113;1961954;-71
2021/03/05 02:53:18;;;;;;;25.64;14.33;;;;;;;2.53;65.73;98756.78;365298;111;1963934;-71
2021/03/05 02:54:27;;;;;;;27.80;13.75;;;;;;;2.55;65.79;98760.11;366820;109;1970003;-71
2021/03/05 02:55:36;;;;;;;29.42;15.17;;;;;;;2.56;65.66;98759.09;365359;111;1961933;-71
2021/03/05 02:56:46;;;;;;;26.95;14.00;;;;;;;2.55;65.86;98760.93;365578;111;1962084;-71
2021/03/05 02:57:55;;;;;;;27.13;14.16;;;;;;;2.53;65.84;98754.12;340943;111;1961945;-71
2021/03/05 02:59:01;;;;;;;28.63;15.38;;;;;;;2.54;65.81;98763.77;321847;114;2208983;-71
2021/03/05 03:00:09;;;;;;;31.89;15.34;;;;;;;2.53;65.85;98760.27;352491;114;1961948;-72
2021/03/05 03:01:16;;;;;;;34.26;16.08;;;;;;;2.52;65.97;98761.29;330944;114;2396015;-71
2021/03/05 03:02:27;;;;;;;29.22;15.02;;;;;;;2.53;66.17;98756.78;366940;111;1961975;-71
2021/03/05 03:03:34;;;;;;;32.08;15.04;;;;;;;2.51;66.26;98748.12;353602;111;2213935;-72
2021/03/05 03:04:42;;;;;;;27.14;14.84;;;;;;;2.51;66.21;98758.78;364980;109;1962027;-71
2021/03/05 03:05:50;;;;;;;32.64;15.75;;;;;;;2.50;66.46;98760.63;319047;111;2191662;-71
2021/03/05 03:07:00;;;;;;;29.98;15.00;;;;;;;2.52;66.22;98755.13;344264;109;2399868;-71
2021/03/05 03:08:10;;;;;;;28.34;13.85;;;;;;;2.54;66.27;98758.43;364434;108;1961911;-72
2021/03/05 03:09:17;;;;;;;25.20;12.59;;;;;;;2.56;66.31;98756.42;356261;108;2894904;-71
2021/03/05 03:10:28;;;;;;;27.37;13.58;;;;;;;2.58;66.22;98759.75;364321;108;1963008;-72
2021/03/05 03:11:36;;;;;;;28.13;14.83;;;;;;;2.58;66.10;98763.23;364887;108;1961976;-72
2021/03/05 03:12:54;;;;;;;26.86;15.47;;;;;;;2.58;66.13;98760.58;364751;108;1964022;-71
2021/03/05 03:14:02;;;;;;;27.51;14.10;;;;;;;2.57;66.21;98756.26;330031;112;1961952;-71
2021/03/05 03:15:11;;;;;;;29.31;14.47;;;;;;;2.57;66.30;98755.44;354621;112;1964041;-71
2021/03/05 03:16:18;;;;;;;29.04;14.87;;;;;;;2.60;66.15;98760.41;356501;112;1962937;-71
2021/03/05 03:17:27;;;;;;;26.98;14.57;;;;;;;2.62;66.22;98761.07;328120;118;1961989;-71
2021/03/05 03:18:36;;;;;;;29.21;15.22;;;;;;;2.63;66.25;98760.88;345952;115;1962068;-72
2021/03/05 03:19:51;;;;;;;26.78;13.98;;;;;;;2.63;66.15;98770.72;333154;115;2283011;-72
2021/03/05 03:20:58;;;;;;;28.00;14.32;;;;;;;2.63;66.18;98773.38;305892;114;2890977;-71
2021/03/05 03:22:04;;;;;;;28.01;14.39;;;;;;;2.65;66.19;98774.05;358316;112;1962054;-70
2021/03/05 03:23:10;;;;;;;27.88;13.39;;;;;;;2.66;66.17;98775.69;344747;117;1962864;-72
2021/03/05 03:24:16;;;;;;;29.70;14.51;;;;;;;2.68;66.22;98772.86;325248;117;2343896;-71
2021/03/05 03:25:23;;;;;;;27.76;13.48;;;;;;;2.70;66.25;98776.16;345420;117;1963041;-72
2021/03/05 03:26:32;;;;;;;30.66;15.49;;;;;;;2.71;66.24;98777.83;362077;110;1961944;-72
2021/03/05 03:27:38;;;;;;;27.21;13.69;;;;;;;2.74;66.09;98777.47;356473;112;1961971;-72
2021/03/05 03:28:44;;;;;;;29.98;15.13;;;;;;;2.74;66.20;98782.81;309705;111;2208130;-72
2021/03/05 03:29:49;;;;;;;32.36;14.74;;;;;;;2.74;66.11;98783.63;347188;113;1962916;-71
2021/03/05 03:30:55;;;;;;;28.68;15.03;;;;;;;2.74;66.12;98780.14;354209;113;1961982;-71
2021/03/05 03:32:02;;;;;;;31.99;14.77;;;;;;;2.76;66.15;98784.29;365048;111;1961951;-71
2021/03/05 03:33:08;;;;;;;32.49;17.03;;;;;;;2.76;65.96;98773.63;351227;111;1963978;-71
2021/03/05 03:34:14;;;;;;;30.93;14.11;;;;;;;2.78;66.03;98773.42;360347;113;1962044;-71
2021/03/05 03:35:20;;;;;;;32.13;15.09;;;;;;;2.79;65.98;98785.77;360330;111;1961977;-71
2021/03/05 03:36:29;;;;;;;31.03;15.37;;;;;;;2.80;65.88;98782.91;355049;113;1962141;-72
2021/03/05 03:37:35;;;;;;;27.91;13.77;;;;;;;2.80;65.86;98788.25;361646;111;1961996;-71
2021/03/05 03:38:41;;;;;;;31.36;15.23;;;;;;;2.79;65.91;98791.11;344360;111;1963065;-72
2021/03/05 03:39:47;;;;;;;28.36;14.97;;;;;;;2.77;66.06;98791.27;361109;111;1962047;-72
2021/03/05 03:40:53;;;;;;;27.94;14.03;;;;;;;2.74;66.10;98791.63;357282;111;1961943;-72
2021/03/05 03:42:00;;;;;;;29.32;15.71;;;;;;;2.71;66.31;98786.66;310165;111;2210377;-72
2021/03/05 03:43:06;;;;;;;30.43;14.44;;;;;;;2.69;66.38;98787.84;361138;111;1961028;-72
2021/03/05 03:44:12;;;;;;;31.41;14.43;;;;;;;2.67;66.58;98779.18;360862;111;1960969;-72
2021/03/05 03:45:22;;;;;;;30.88;15.26;;;;;;;2.66;66.64;98783.69;361383;111;1961881;-72
2021/03/05 03:46:31;;;;;;;29.87;15.79;;;;;;;2.61;67.05;98789.55;358397;110;1962070;-73
2021/03/05 03:47:37;;;;;;;29.04;15.60;;;;;;;2.60;67.05;98784.41;346699;110;2229959;-71
2021/03/05 03:48:46;;;;;;;32.05;15.77;;;;;;;2.57;67.14;98788.25;359532;110;1961929;-71
2021/03/05 03:49:56;;;;;;;28.69;14.07;;;;;;;2.56;67.06;98789.23;358199;110;1962941;-71
2021/03/05 03:51:05;;;;;;;27.26;13.94;;;;;;;2.56;67.48;98788.41;352260;113;1962065;-73
2021/03/05 03:52:17;;;;;;;30.48;15.66;;;;;;;2.55;67.30;98795.59;320206;113;1980785;-73
2021/03/05 03:53:30;;;;;;;31.91;14.81;;;;;;;2.53;67.65;98792.27;359889;111;1961989;-72
2021/03/05 03:54:38;;;;;;;31.26;15.68;;;;;;;2.54;67.77;98795.75;357220;111;1961991;-73
2021/03/05 03:55:44;;;;;;;27.78;13.53;;;;;;;2.54;67.62;98790.42;323576;111;2210994;-72
2021/03/05 03:56:53;;;;;;;29.09;13.61;;;;;;;2.51;67.79;98796.94;353186;113;1962047;-71
2021/03/05 03:58:01;;;;;;;29.72;14.63;;;;;;;2.50;67.98;98789.95;353823;113;1963004;-72
2021/03/05 03:59:08;;;;;;;29.78;14.64;;;;;;;2.49;67.93;98788.30;358713;111;1964004;-72
2021/03/05 04:00:16;;;;;;;30.56;14.54;;;;;;;2.48;67.93;98796.46;354044;114;1962280;-72
2021/03/05 04:01:23;;;;;;;29.85;16.40;;;;;;;2.47;68.25;98787.64;320271;110;2056171;-72
2021/03/05 04:02:39;;;;;;;33.79;15.50;;;;;;;2.48;67.92;98783.14;314850;111;2853921;-72
2021/03/05 04:03:49;;;;;;;32.40;15.44;;;;;;;2.47;68.23;98795.64;332391;113;2887043;-72
2021/03/05 04:04:57;;;;;;;31.52;15.65;;;;;;;2.45;69.37;98799.48;338087;112;2373932;-71
2021/03/05 04:06:05;;;;;;;35.50;15.50;;;;;;;2.41;69.71;98799.02;360825;110;1963947;-71
2021/03/05 04:07:12;;;;;;;31.64;15.38;;;;;;;2.40;69.41;98800.00;359187;112;1961986;-71
2021/03/05 04:08:20;;;;;;;30.93;16.35;;;;;;;2.39;70.13;98796.52;360476;112;1962936;-71
2021/03/05 04:09:28;;;;;;;28.57;15.44;;;;;;;2.36;69.92;98804.86;359456;112;1961967;-71
2021/03/05 04:10:47;;;;;;;27.17;14.34;;;;;;;2.31;70.71;98801.89;359933;112;1962003;-72
2021/03/05 04:11:55;;;;;;;24.30;13.56;;;;;;;2.33;70.28;98801.70;324985;116;2360941;-71
2021/03/05 04:13:02;;;;;;;28.24;13.70;;;;;;;2.34;70.62;98803.38;344755;116;1964019;-71
2021/03/05 04:14:08;;;;;;;25.74;12.56;;;;;;;2.37;71.98;98801.18;307656;117;2009060;-71
2021/03/05 04:15:15;;;;;;;24.71;12.24;;;;;;;2.43;71.31;98804.98;343553;115;1962020;-71
2021/03/05 04:16:23;;;;;;;25.32;12.76;;;;;;;2.50;71.47;98800.61;349974;115;1962004;-72
2021/03/05 04:17:30;;;;;;;24.69;13.29;;;;;;;2.58;71.14;98805.89;345986;115;1961930;-72
2021/03/05 04:18:37;;;;;;;24.06;11.95;;;;;;;2.67;71.17;98804.00;329204;117;2250016;-71
2021/03/05 04:19:51;;;;;;;24.22;12.41;;;;;;;2.70;71.11;98806.34;345054;115;1961951;-72
2021/03/05 04:21:00;;;;;;;23.19;13.05;;;;;;;2.82;71.00;98810.24;325896;117;1962067;-72
2021/03/05 04:22:06;;;;;;;25.79;13.57;;;;;;;2.92;70.80;98811.86;290596;115;2200657;-73
2021/03/05 04:23:11;;;;;;;25.14;13.07;;;;;;;3.00;70.66;98803.80;323628;115;1962994;-72
2021/03/05 04:24:17;;;;;;;25.20;13.19;;;;;;;3.07;70.58;98810.09;344523;115;1962035;-72
2021/03/05 04:25:23;;;;;;;25.74;12.48;;;;;;;3.16;70.42;98803.66;344408;115;1961934;-73
2021/03/05 04:26:30;;;;;;;24.52;13.28;;;;;;;3.25;70.18;98796.41;303964;117;2035777;-72
2021/03/05 04:27:35;;;;;;;26.59;14.34;;;;;;;3.29;69.94;98797.72;332239;117;1961909;-72
2021/03/05 04:28:41;;;;;;;24.61;13.52;;;;;;;3.32;69.55;98800.02;344915;115;1964000;-72
2021/03/05 04:29:47;;;;;;;28.32;15.05;;;;;;;3.38;69.78;98803.80;345572;114;1961891;-72
2021/03/05 04:30:53;;;;;;;26.97;14.15;;;;;;;3.38;69.58;98793.12;346056;116;1962939;-72
2021/03/05 04:31:58;;;;;;;29.38;15.62;;;;;;;3.34;69.25;98800.67;316236;116;2238980;-72
2021/03/05 04:33:06;;;;;;;26.94;15.35;;;;;;;3.27;69.53;98800.55;343707;116;1962070;-73
2021/03/05 04:34:12;;;;;;;30.76;15.18;;;;;;;3.24;69.73;98802.77;352388;115;1961974;-73
2021/03/05 04:35:18;;;;;;;28.56;16.21;;;;;;;3.18;69.66;98804.31;326757;117;2291869;-73
2021/03/05 04:36:23;;;;;;;30.56;16.24;;;;;;;3.12;69.75;98805.02;341653;116;1962044;-73
2021/03/05 04:37:30;;;;;;;33.65;18.33;;;;;;;3.07;70.03;98812.75;340237;118;1961991;-73
2021/03/05 04:38:36;;;;;;;27.81;14.27;;;;;;;2.98;70.50;98811.14;326291;118;2934980;-73
2021/03/05 04:39:42;;;;;;;25.06;15.00;;;;;;;2.93;70.43;98810.84;317832;118;1962987;-73
2021/03/05 04:40:49;;;;;;;25.18;14.08;;;;;;;2.93;70.29;98811.66;340727;118;1961986;-73
2021/03/05 04:41:55;;;;;;;25.58;13.72;;;;;;;2.92;70.45;98812.69;340728;117;1961964;-72
2021/03/05 04:43:01;;;;;;;27.81;13.84;;;;;;;2.98;70.49;98817.30;319281;118;2394060;-73
2021/03/05 04:44:07;;;;;;;27.33;13.74;;;;;;;3.01;70.69;98810.78;332036;117;1963026;-73
2021/03/05 04:45:12;;;;;;;26.65;13.51;;;;;;;3.07;70.58;98818.09;341381;118;1961988;-73
2021/03/05 04:46:18;;;;;;;27.45;14.73;;;;;;;3.14;70.54;98815.52;340936;117;1963957;-72
2021/03/05 04:47:24;;;;;;;27.07;13.44;;;;;;;3.20;70.32;98812.98;340579;116;1962008;-72
2021/03/05 04:48:30;;;;;;;27.72;14.17;;;;;;;3.26;70.19;98809.58;302176;116;2056471;-72
2021/03/05 04:49:36;;;;;;;27.42;13.77;;;;;;;3.32;70.12;98809.88;341250;116;1963042;-72
2021/03/05 04:50:42;;;;;;;26.60;13.79;;;;;;;3.34;69.73;98813.20;347588;114;1961972;-72
2021/03/05 04:51:47;;;;;;;27.77;15.34;;;;;;;3.37;69.67;98807.49;345285;116;1961902;-73
2021/03/05 04:52:53;;;;;;;25.46;14.28;;;;;;;3.38;69.59;98798.46;348699;115;1961929;-73
2021/03/05 04:53:58;;;;;;;27.48;14.73;;;;;;;3.42;69.95;98807.78;349649;114;1962914;-73
2021/03/05 04:55:06;;;;;;;32.76;16.21;;;;;;;3.42;69.88;98816.62;312736;116;2644926;-72
2021/03/05 04:56:12;;;;;;;32.23;16.20;;;;;;;3.36;69.77;98812.01;349154;116;1963964;-73
2021/03/05 04:57:18;;;;;;;33.38;16.76;;;;;;;3.32;69.91;98816.03;299812;121;2681010;-73
2021/03/05 04:58:23;;;;;;;33.37;17.19;;;;;;;3.26;69.91;98812.25;331082;114;1966966;-73
2021/03/05 04:59:31;;;;;;;27.52;15.84;;;;;;;3.22;69.93;98816.27;354647;114;1964031;-74
2021/03/05 05:00:38;;;;;;;31.48;17.42;;;;;;;3.18;70.00;98817.66;338065;114;1961903;-74
2021/03/05 05:01:45;;;;;;;32.13;15.38;;;;;;;3.14;70.19;98821.68;355705;104;1962918;-72
2021/03/05 05:02:51;;;;;;;26.52;14.34;;;;;;;3.08;69.91;98822.41;308485;109;2184243;-72
2021/03/05 05:03:57;;;;;;;31.01;16.47;;;;;;;3.03;70.11;98828.27;349382;110;1961858;-72
2021/03/05 05:05:03;;;;;;;25.87;14.14;;;;;;;3.00;70.67;98828.63;353868;113;1961946;-72
2021/03/05 05:06:11;;;;;;;25.14;13.37;;;;;;;2.98;70.69;98833.30;355589;113;1963903;-72
2021/03/05 05:07:16;;;;;;;31.26;14.98;;;;;;;2.95;71.11;98831.00;335395;113;1961948;-73
2021/03/05 05:08:22;;;;;;;25.37;13.21;;;;;;;2.97;71.21;98830.83;358381;111;1962029;-72
2021/03/05 05:09:27;;;;;;;24.77;13.14;;;;;;;3.02;71.10;98839.14;357126;113;1963841;-72
2021/03/05 05:10:34;;;;;;;25.52;12.68;;;;;;;3.05;71.37;98833.44;354810;111;1961980;-74